sensor_id;sensor_type;location;lat;lon;timestamp;pressure;altitude;pressure_sealevel;temperature
22828;BMP180;11580;52.562;13.418;2023-05-31T00:00:05;101687.00;;;16.50
22828;BMP180;11580;52.562;13.418;2023-05-31T00:02:33;101690.00;;;16.50
22828;BMP180;11580;52.562;13.418;2023-05-31T00:05:00;101687.00;;;16.40
22828;BMP180;11580;52.562;13.418;2023-05-31T00:07:28;101692.00;;;16.40
22828;BMP180;11580;52.562;13.418;2023-05-31T00:09:55;101686.00;;;16.40
22828;BMP180;11580;52.562;13.418;2023-05-31T00:12:23;101691.00;;;16.30
22828;BMP180;11580;52.562;13.418;2023-05-31T00:14:51;101690.00;;;16.30
22828;BMP180;11580;52.562;13.418;2023-05-31T00:17:18;101680.00;;;16.20
22828;BMP180;11580;52.562;13.418;2023-05-31T00:19:45;101686.00;;;16.20
22828;BMP180;11580;52.562;13.418;2023-05-31T00:22:12;101687.00;;;16.20
22828;BMP180;11580;52.562;13.418;2023-05-31T00:24:42;101688.00;;;16.10
22828;BMP180;11580;52.562;13.418;2023-05-31T00:27:10;101683.00;;;16.10
22828;BMP180;11580;52.562;13.418;2023-05-31T00:29:38;101682.00;;;16.00
22828;BMP180;11580;52.562;13.418;2023-05-31T00:32:06;101677.00;;;16.00
22828;BMP180;11580;52.562;13.418;2023-05-31T00:34:33;101684.00;;;16.00
22828;BMP180;11580;52.562;13.418;2023-05-31T00:37:01;101677.00;;;16.00
22828;BMP180;11580;52.562;13.418;2023-05-31T00:39:28;101677.00;;;15.90
22828;BMP180;11580;52.562;13.418;2023-05-31T00:41:56;101672.00;;;15.90
22828;BMP180;11580;52.562;13.418;2023-05-31T00:44:24;101678.00;;;15.90
22828;BMP180;11580;52.562;13.418;2023-05-31T00:46:52;101676.00;;;15.80
22828;BMP180;11580;52.562;13.418;2023-05-31T00:49:20;101678.00;;;15.80
22828;BMP180;11580;52.562;13.418;2023-05-31T00:51:47;101677.00;;;15.70
22828;BMP180;11580;52.562;13.418;2023-05-31T00:54:15;101678.00;;;15.70
22828;BMP180;11580;52.562;13.418;2023-05-31T00:56:42;101687.00;;;15.60
22828;BMP180;11580;52.562;13.418;2023-05-31T00:59:10;101681.00;;;15.60
22828;BMP180;11580;52.562;13.418;2023-05-31T01:01:38;101685.00;;;15.60
22828;BMP180;11580;52.562;13.418;2023-05-31T01:04:09;101692.00;;;15.50
22828;BMP180;11580;52.562;13.418;2023-05-31T01:06:37;101684.00;;;15.50
22828;BMP180;11580;52.562;13.418;2023-05-31T01:09:06;101678.00;;;15.50
22828;BMP180;11580;52.562;13.418;2023-05-31T01:11:56;101681.00;;;15.40
22828;BMP180;11580;52.562;13.418;2023-05-31T01:14:38;101681.00;;;15.40
22828;BMP180;11580;52.562;13.418;2023-05-31T01:17:19;101677.00;;;15.30
22828;BMP180;11580;52.562;13.418;2023-05-31T01:19:53;101676.00;;;15.30
22828;BMP180;11580;52.562;13.418;2023-05-31T01:22:29;101678.00;;;15.20
22828;BMP180;11580;52.562;13.418;2023-05-31T01:25:31;101679.00;;;15.20
22828;BMP180;11580;52.562;13.418;2023-05-31T01:28:06;101680.00;;;15.20
22828;BMP180;11580;52.562;13.418;2023-05-31T01:30:37;101670.00;;;15.10
22828;BMP180;11580;52.562;13.418;2023-05-31T01:33:08;101676.00;;;15.10
22828;BMP180;11580;52.562;13.418;2023-05-31T01:35:36;101676.00;;;15.10
22828;BMP180;11580;52.562;13.418;2023-05-31T01:38:05;101684.00;;;15.00
22828;BMP180;11580;52.562;13.418;2023-05-31T01:40:34;101685.00;;;15.00
22828;BMP180;11580;52.562;13.418;2023-05-31T01:43:04;101679.00;;;15.00
22828;BMP180;11580;52.562;13.418;2023-05-31T01:45:34;101680.00;;;14.90
22828;BMP180;11580;52.562;13.418;2023-05-31T01:48:06;101672.00;;;14.90
22828;BMP180;11580;52.562;13.418;2023-05-31T01:50:36;101675.00;;;14.90
22828;BMP180;11580;52.562;13.418;2023-05-31T01:53:03;101682.00;;;14.80
22828;BMP180;11580;52.562;13.418;2023-05-31T01:55:32;101680.00;;;14.80
22828;BMP180;11580;52.562;13.418;2023-05-31T01:58:02;101674.00;;;14.80
22828;BMP180;11580;52.562;13.418;2023-05-31T02:00:35;101681.00;;;14.80
22828;BMP180;11580;52.562;13.418;2023-05-31T02:03:03;101671.00;;;14.80
22828;BMP180;11580;52.562;13.418;2023-05-31T02:05:31;101685.00;;;14.70
22828;BMP180;11580;52.562;13.418;2023-05-31T02:07:59;101680.00;;;14.70
22828;BMP180;11580;52.562;13.418;2023-05-31T02:10:26;101682.00;;;14.70
22828;BMP180;11580;52.562;13.418;2023-05-31T02:12:53;101682.00;;;14.70
22828;BMP180;11580;52.562;13.418;2023-05-31T02:15:22;101673.00;;;14.70
22828;BMP180;11580;52.562;13.418;2023-05-31T02:17:50;101678.00;;;14.60
22828;BMP180;11580;52.562;13.418;2023-05-31T02:20:17;101682.00;;;14.60
22828;BMP180;11580;52.562;13.418;2023-05-31T02:22:45;101674.00;;;14.60
22828;BMP180;11580;52.562;13.418;2023-05-31T02:25:14;101677.00;;;14.60
22828;BMP180;11580;52.562;13.418;2023-05-31T02:27:42;101670.00;;;14.50
22828;BMP180;11580;52.562;13.418;2023-05-31T02:30:10;101652.00;;;14.50
22828;BMP180;11580;52.562;13.418;2023-05-31T02:32:39;101667.00;;;14.50
22828;BMP180;11580;52.562;13.418;2023-05-31T02:35:10;101676.00;;;14.50
22828;BMP180;11580;52.562;13.418;2023-05-31T02:37:39;101672.00;;;14.50
22828;BMP180;11580;52.562;13.418;2023-05-31T02:40:07;101665.00;;;14.40
22828;BMP180;11580;52.562;13.418;2023-05-31T02:42:35;101664.00;;;14.40
22828;BMP180;11580;52.562;13.418;2023-05-31T02:45:04;101659.00;;;14.40
22828;BMP180;11580;52.562;13.418;2023-05-31T02:47:34;101658.00;;;14.40
22828;BMP180;11580;52.562;13.418;2023-05-31T02:50:05;101666.00;;;14.40
22828;BMP180;11580;52.562;13.418;2023-05-31T02:52:34;101664.00;;;14.40
22828;BMP180;11580;52.562;13.418;2023-05-31T02:55:13;101662.00;;;14.40
22828;BMP180;11580;52.562;13.418;2023-05-31T02:58:03;101675.00;;;14.40
22828;BMP180;11580;52.562;13.418;2023-05-31T03:00:33;101666.00;;;14.50
22828;BMP180;11580;52.562;13.418;2023-05-31T03:03:01;101667.00;;;14.60
22828;BMP180;11580;52.562;13.418;2023-05-31T03:05:42;101657.00;;;14.80
22828;BMP180;11580;52.562;13.418;2023-05-31T03:08:09;101653.00;;;15.00
22828;BMP180;11580;52.562;13.418;2023-05-31T03:10:37;101662.00;;;15.30
22828;BMP180;11580;52.562;13.418;2023-05-31T03:13:04;101663.00;;;15.60
22828;BMP180;11580;52.562;13.418;2023-05-31T03:15:31;101677.00;;;15.90
22828;BMP180;11580;52.562;13.418;2023-05-31T03:17:59;101684.00;;;16.10
22828;BMP180;11580;52.562;13.418;2023-05-31T03:20:26;101678.00;;;16.40
22828;BMP180;11580;52.562;13.418;2023-05-31T03:22:56;101686.00;;;16.70
22828;BMP180;11580;52.562;13.418;2023-05-31T03:25:25;101668.00;;;17.00
22828;BMP180;11580;52.562;13.418;2023-05-31T03:27:52;101682.00;;;17.40
22828;BMP180;11580;52.562;13.418;2023-05-31T03:30:19;101675.00;;;17.70
22828;BMP180;11580;52.562;13.418;2023-05-31T03:32:54;101682.00;;;18.10
22828;BMP180;11580;52.562;13.418;2023-05-31T03:35:21;101685.00;;;18.50
22828;BMP180;11580;52.562;13.418;2023-05-31T03:37:48;101688.00;;;18.90
22828;BMP180;11580;52.562;13.418;2023-05-31T03:40:18;101687.00;;;19.30
22828;BMP180;11580;52.562;13.418;2023-05-31T03:42:45;101689.00;;;19.70
22828;BMP180;11580;52.562;13.418;2023-05-31T03:45:13;101687.00;;;20.10
22828;BMP180;11580;52.562;13.418;2023-05-31T03:47:40;101696.00;;;20.50
22828;BMP180;11580;52.562;13.418;2023-05-31T03:50:08;101690.00;;;20.90
22828;BMP180;11580;52.562;13.418;2023-05-31T03:52:36;101691.00;;;21.20
22828;BMP180;11580;52.562;13.418;2023-05-31T03:55:05;101687.00;;;21.50
22828;BMP180;11580;52.562;13.418;2023-05-31T03:57:34;101686.00;;;21.90
22828;BMP180;11580;52.562;13.418;2023-05-31T04:00:02;101676.00;;;22.30
22828;BMP180;11580;52.562;13.418;2023-05-31T04:02:39;101686.00;;;22.70
22828;BMP180;11580;52.562;13.418;2023-05-31T04:05:07;101704.00;;;23.20
22828;BMP180;11580;52.562;13.418;2023-05-31T04:07:35;101707.00;;;23.60
22828;BMP180;11580;52.562;13.418;2023-05-31T04:10:03;101708.00;;;24.00
22828;BMP180;11580;52.562;13.418;2023-05-31T04:12:31;101708.00;;;24.40
22828;BMP180;11580;52.562;13.418;2023-05-31T04:14:59;101708.00;;;24.80
22828;BMP180;11580;52.562;13.418;2023-05-31T04:17:27;101707.00;;;25.20
22828;BMP180;11580;52.562;13.418;2023-05-31T04:19:54;101709.00;;;25.50
22828;BMP180;11580;52.562;13.418;2023-05-31T04:22:21;101709.00;;;25.90
22828;BMP180;11580;52.562;13.418;2023-05-31T04:24:50;101714.00;;;26.20
22828;BMP180;11580;52.562;13.418;2023-05-31T04:27:24;101711.00;;;26.40
22828;BMP180;11580;52.562;13.418;2023-05-31T04:29:51;101723.00;;;26.50
22828;BMP180;11580;52.562;13.418;2023-05-31T04:32:24;101726.00;;;26.70
22828;BMP180;11580;52.562;13.418;2023-05-31T04:34:52;101731.00;;;26.80
22828;BMP180;11580;52.562;13.418;2023-05-31T04:37:25;101730.00;;;26.90
22828;BMP180;11580;52.562;13.418;2023-05-31T04:39:54;101731.00;;;27.00
22828;BMP180;11580;52.562;13.418;2023-05-31T04:42:23;101729.00;;;27.10
22828;BMP180;11580;52.562;13.418;2023-05-31T04:44:50;101729.00;;;27.10
22828;BMP180;11580;52.562;13.418;2023-05-31T04:47:20;101728.00;;;27.00
22828;BMP180;11580;52.562;13.418;2023-05-31T04:49:49;101721.00;;;26.90
22828;BMP180;11580;52.562;13.418;2023-05-31T04:52:16;101730.00;;;26.60
22828;BMP180;11580;52.562;13.418;2023-05-31T04:54:43;101728.00;;;26.30
22828;BMP180;11580;52.562;13.418;2023-05-31T04:57:11;101727.00;;;26.00
22828;BMP180;11580;52.562;13.418;2023-05-31T04:59:38;101736.00;;;25.70
22828;BMP180;11580;52.562;13.418;2023-05-31T05:02:06;101723.00;;;25.40
22828;BMP180;11580;52.562;13.418;2023-05-31T05:04:33;101732.00;;;25.10
22828;BMP180;11580;52.562;13.418;2023-05-31T05:07:02;101726.00;;;24.90
22828;BMP180;11580;52.562;13.418;2023-05-31T05:09:29;101725.00;;;24.60
22828;BMP180;11580;52.562;13.418;2023-05-31T05:11:56;101723.00;;;24.30
22828;BMP180;11580;52.562;13.418;2023-05-31T05:14:24;101722.00;;;23.90
22828;BMP180;11580;52.562;13.418;2023-05-31T05:16:51;101715.00;;;23.70
22828;BMP180;11580;52.562;13.418;2023-05-31T05:19:18;101712.00;;;23.50
22828;BMP180;11580;52.562;13.418;2023-05-31T05:21:46;101707.00;;;23.30
22828;BMP180;11580;52.562;13.418;2023-05-31T05:24:16;101708.00;;;23.00
22828;BMP180;11580;52.562;13.418;2023-05-31T05:26:44;101708.00;;;22.90
22828;BMP180;11580;52.562;13.418;2023-05-31T05:29:11;101710.00;;;22.70
22828;BMP180;11580;52.562;13.418;2023-05-31T05:31:38;101706.00;;;22.60
22828;BMP180;11580;52.562;13.418;2023-05-31T05:34:06;101704.00;;;22.40
22828;BMP180;11580;52.562;13.418;2023-05-31T05:36:33;101705.00;;;22.20
22828;BMP180;11580;52.562;13.418;2023-05-31T05:39:01;101706.00;;;22.00
22828;BMP180;11580;52.562;13.418;2023-05-31T05:41:34;101700.00;;;21.80
22828;BMP180;11580;52.562;13.418;2023-05-31T05:44:03;101702.00;;;21.60
22828;BMP180;11580;52.562;13.418;2023-05-31T05:46:30;101697.00;;;21.40
22828;BMP180;11580;52.562;13.418;2023-05-31T05:48:57;101698.00;;;21.20
22828;BMP180;11580;52.562;13.418;2023-05-31T05:51:25;101697.00;;;21.00
22828;BMP180;11580;52.562;13.418;2023-05-31T05:53:56;101703.00;;;20.90
22828;BMP180;11580;52.562;13.418;2023-05-31T05:56:23;101699.00;;;20.70
22828;BMP180;11580;52.562;13.418;2023-05-31T05:58:59;101702.00;;;20.60
22828;BMP180;11580;52.562;13.418;2023-05-31T06:01:46;101693.00;;;20.40
22828;BMP180;11580;52.562;13.418;2023-05-31T06:04:16;101695.00;;;20.30
22828;BMP180;11580;52.562;13.418;2023-05-31T06:06:44;101691.00;;;20.20
22828;BMP180;11580;52.562;13.418;2023-05-31T06:09:11;101691.00;;;20.10
22828;BMP180;11580;52.562;13.418;2023-05-31T06:11:38;101690.00;;;20.00
22828;BMP180;11580;52.562;13.418;2023-05-31T06:14:07;101697.00;;;20.00
22828;BMP180;11580;52.562;13.418;2023-05-31T06:16:39;101694.00;;;19.90
22828;BMP180;11580;52.562;13.418;2023-05-31T06:19:07;101696.00;;;19.80
22828;BMP180;11580;52.562;13.418;2023-05-31T06:21:34;101697.00;;;19.70
22828;BMP180;11580;52.562;13.418;2023-05-31T06:24:02;101691.00;;;19.60
22828;BMP180;11580;52.562;13.418;2023-05-31T06:26:30;101697.00;;;19.60
22828;BMP180;11580;52.562;13.418;2023-05-31T06:28:58;101687.00;;;19.60
22828;BMP180;11580;52.562;13.418;2023-05-31T06:32:03;101699.00;;;19.60
22828;BMP180;11580;52.562;13.418;2023-05-31T06:34:35;101686.00;;;19.60
22828;BMP180;11580;52.562;13.418;2023-05-31T06:37:02;101685.00;;;19.60
22828;BMP180;11580;52.562;13.418;2023-05-31T06:39:30;101684.00;;;19.60
22828;BMP180;11580;52.562;13.418;2023-05-31T06:41:57;101685.00;;;19.70
22828;BMP180;11580;52.562;13.418;2023-05-31T06:44:44;101684.00;;;19.70
22828;BMP180;11580;52.562;13.418;2023-05-31T06:47:23;101680.00;;;19.70
22828;BMP180;11580;52.562;13.418;2023-05-31T06:50:11;101681.00;;;19.80
22828;BMP180;11580;52.562;13.418;2023-05-31T06:53:01;101679.00;;;19.90
22828;BMP180;11580;52.562;13.418;2023-05-31T06:55:42;101686.00;;;20.00
22828;BMP180;11580;52.562;13.418;2023-05-31T06:58:14;101688.00;;;20.10
22828;BMP180;11580;52.562;13.418;2023-05-31T07:00:42;101684.00;;;20.20
22828;BMP180;11580;52.562;13.418;2023-05-31T07:03:11;101689.00;;;20.30
22828;BMP180;11580;52.562;13.418;2023-05-31T07:05:38;101686.00;;;20.40
22828;BMP180;11580;52.562;13.418;2023-05-31T07:08:06;101680.00;;;20.50
22828;BMP180;11580;52.562;13.418;2023-05-31T07:10:44;101686.00;;;20.60
22828;BMP180;11580;52.562;13.418;2023-05-31T07:13:12;101676.00;;;20.70
22828;BMP180;11580;52.562;13.418;2023-05-31T07:15:40;101674.00;;;20.80
22828;BMP180;11580;52.562;13.418;2023-05-31T07:18:07;101670.00;;;20.90
22828;BMP180;11580;52.562;13.418;2023-05-31T07:20:36;101673.00;;;21.00
22828;BMP180;11580;52.562;13.418;2023-05-31T07:23:03;101671.00;;;21.10
22828;BMP180;11580;52.562;13.418;2023-05-31T07:25:30;101664.00;;;21.20
22828;BMP180;11580;52.562;13.418;2023-05-31T07:27:57;101662.00;;;21.40
22828;BMP180;11580;52.562;13.418;2023-05-31T07:30:24;101663.00;;;21.50
22828;BMP180;11580;52.562;13.418;2023-05-31T07:32:52;101662.00;;;21.60
22828;BMP180;11580;52.562;13.418;2023-05-31T07:35:20;101669.00;;;21.70
22828;BMP180;11580;52.562;13.418;2023-05-31T07:37:48;101661.00;;;21.80
22828;BMP180;11580;52.562;13.418;2023-05-31T07:40:15;101658.00;;;21.90
22828;BMP180;11580;52.562;13.418;2023-05-31T07:42:42;101661.00;;;22.10
22828;BMP180;11580;52.562;13.418;2023-05-31T07:45:11;101658.00;;;22.30
22828;BMP180;11580;52.562;13.418;2023-05-31T07:47:38;101661.00;;;22.40
22828;BMP180;11580;52.562;13.418;2023-05-31T07:50:07;101647.00;;;22.60
22828;BMP180;11580;52.562;13.418;2023-05-31T07:52:34;101661.00;;;22.70
22828;BMP180;11580;52.562;13.418;2023-05-31T07:55:04;101655.00;;;22.90
22828;BMP180;11580;52.562;13.418;2023-05-31T07:57:31;101657.00;;;23.00
22828;BMP180;11580;52.562;13.418;2023-05-31T07:59:59;101656.00;;;23.10
22828;BMP180;11580;52.562;13.418;2023-05-31T08:02:26;101657.00;;;23.20
22828;BMP180;11580;52.562;13.418;2023-05-31T08:04:53;101656.00;;;23.40
22828;BMP180;11580;52.562;13.418;2023-05-31T08:07:25;101664.00;;;23.50
22828;BMP180;11580;52.562;13.418;2023-05-31T08:09:53;101656.00;;;23.60
22828;BMP180;11580;52.562;13.418;2023-05-31T08:12:21;101661.00;;;23.70
22828;BMP180;11580;52.562;13.418;2023-05-31T08:14:48;101649.00;;;23.80
22828;BMP180;11580;52.562;13.418;2023-05-31T08:17:16;101663.00;;;23.90
22828;BMP180;11580;52.562;13.418;2023-05-31T08:19:43;101665.00;;;24.10
22828;BMP180;11580;52.562;13.418;2023-05-31T08:22:10;101654.00;;;24.20
22828;BMP180;11580;52.562;13.418;2023-05-31T08:24:37;101659.00;;;24.30
22828;BMP180;11580;52.562;13.418;2023-05-31T08:27:05;101655.00;;;24.30
22828;BMP180;11580;52.562;13.418;2023-05-31T08:29:33;101630.00;;;24.40
22828;BMP180;11580;52.562;13.418;2023-05-31T08:32:01;101662.00;;;24.40
22828;BMP180;11580;52.562;13.418;2023-05-31T08:34:28;101658.00;;;24.40
22828;BMP180;11580;52.562;13.418;2023-05-31T08:36:55;101655.00;;;24.50
22828;BMP180;11580;52.562;13.418;2023-05-31T08:39:23;101655.00;;;24.50
22828;BMP180;11580;52.562;13.418;2023-05-31T08:41:58;101661.00;;;24.60
22828;BMP180;11580;52.562;13.418;2023-05-31T08:44:27;101653.00;;;24.60
22828;BMP180;11580;52.562;13.418;2023-05-31T08:47:03;101654.00;;;24.70
22828;BMP180;11580;52.562;13.418;2023-05-31T08:49:34;101661.00;;;24.70
22828;BMP180;11580;52.562;13.418;2023-05-31T08:52:02;101654.00;;;24.80
22828;BMP180;11580;52.562;13.418;2023-05-31T08:54:30;101659.00;;;24.80
22828;BMP180;11580;52.562;13.418;2023-05-31T08:56:58;101651.00;;;24.90
22828;BMP180;11580;52.562;13.418;2023-05-31T08:59:27;101644.00;;;24.90
22828;BMP180;11580;52.562;13.418;2023-05-31T09:01:56;101638.00;;;24.90
22828;BMP180;11580;52.562;13.418;2023-05-31T09:04:25;101645.00;;;25.00
22828;BMP180;11580;52.562;13.418;2023-05-31T09:06:52;101648.00;;;25.00
22828;BMP180;11580;52.562;13.418;2023-05-31T09:09:20;101645.00;;;25.00
22828;BMP180;11580;52.562;13.418;2023-05-31T09:11:47;101642.00;;;25.10
22828;BMP180;11580;52.562;13.418;2023-05-31T09:14:14;101643.00;;;25.10
22828;BMP180;11580;52.562;13.418;2023-05-31T09:16:41;101639.00;;;25.10
22828;BMP180;11580;52.562;13.418;2023-05-31T09:19:10;101645.00;;;25.20
22828;BMP180;11580;52.562;13.418;2023-05-31T09:21:41;101631.00;;;25.20
22828;BMP180;11580;52.562;13.418;2023-05-31T09:24:11;101629.00;;;25.20
22828;BMP180;11580;52.562;13.418;2023-05-31T09:26:46;101630.00;;;25.20
22828;BMP180;11580;52.562;13.418;2023-05-31T09:29:14;101631.00;;;25.20
22828;BMP180;11580;52.562;13.418;2023-05-31T09:31:43;101628.00;;;25.20
22828;BMP180;11580;52.562;13.418;2023-05-31T09:34:28;101621.00;;;25.20
22828;BMP180;11580;52.562;13.418;2023-05-31T09:36:58;101622.00;;;25.10
22828;BMP180;11580;52.562;13.418;2023-05-31T09:39:25;101623.00;;;25.10
22828;BMP180;11580;52.562;13.418;2023-05-31T09:41:53;101616.00;;;25.10
22828;BMP180;11580;52.562;13.418;2023-05-31T09:44:26;101612.00;;;25.10
22828;BMP180;11580;52.562;13.418;2023-05-31T09:46:54;101607.00;;;25.10
22828;BMP180;11580;52.562;13.418;2023-05-31T09:49:21;101605.00;;;25.00
22828;BMP180;11580;52.562;13.418;2023-05-31T09:51:51;101593.00;;;25.10
22828;BMP180;11580;52.562;13.418;2023-05-31T09:54:19;101600.00;;;25.10
22828;BMP180;11580;52.562;13.418;2023-05-31T09:56:51;101608.00;;;25.20
22828;BMP180;11580;52.562;13.418;2023-05-31T09:59:18;101602.00;;;25.20
22828;BMP180;11580;52.562;13.418;2023-05-31T10:01:48;101602.00;;;25.30
22828;BMP180;11580;52.562;13.418;2023-05-31T10:04:16;101596.00;;;25.30
22828;BMP180;11580;52.562;13.418;2023-05-31T10:06:44;101601.00;;;25.40
22828;BMP180;11580;52.562;13.418;2023-05-31T10:09:13;101600.00;;;25.40
22828;BMP180;11580;52.562;13.418;2023-05-31T10:11:46;101601.00;;;25.50
22828;BMP180;11580;52.562;13.418;2023-05-31T10:14:21;101591.00;;;25.60
22828;BMP180;11580;52.562;13.418;2023-05-31T10:16:55;101598.00;;;25.70
22828;BMP180;11580;52.562;13.418;2023-05-31T10:19:30;101596.00;;;25.80
22828;BMP180;11580;52.562;13.418;2023-05-31T10:22:00;101589.00;;;25.90
22828;BMP180;11580;52.562;13.418;2023-05-31T10:24:48;101590.00;;;26.10
22828;BMP180;11580;52.562;13.418;2023-05-31T10:27:27;101591.00;;;26.20
22828;BMP180;11580;52.562;13.418;2023-05-31T10:29:58;101583.00;;;26.40
22828;BMP180;11580;52.562;13.418;2023-05-31T10:32:34;101578.00;;;26.50
22828;BMP180;11580;52.562;13.418;2023-05-31T10:35:06;101581.00;;;26.70
22828;BMP180;11580;52.562;13.418;2023-05-31T10:37:33;101579.00;;;26.80
22828;BMP180;11580;52.562;13.418;2023-05-31T10:40:11;101568.00;;;27.00
22828;BMP180;11580;52.562;13.418;2023-05-31T10:42:45;101584.00;;;27.10
22828;BMP180;11580;52.562;13.418;2023-05-31T10:45:24;101577.00;;;27.20
22828;BMP180;11580;52.562;13.418;2023-05-31T10:47:59;101575.00;;;27.40
22828;BMP180;11580;52.562;13.418;2023-05-31T10:50:28;101575.00;;;27.40
22828;BMP180;11580;52.562;13.418;2023-05-31T10:53:09;101572.00;;;27.50
22828;BMP180;11580;52.562;13.418;2023-05-31T10:55:43;101575.00;;;27.60
22828;BMP180;11580;52.562;13.418;2023-05-31T10:58:25;101565.00;;;27.70
22828;BMP180;11580;52.562;13.418;2023-05-31T11:00:54;101566.00;;;27.80
22828;BMP180;11580;52.562;13.418;2023-05-31T11:03:22;101566.00;;;27.80
22828;BMP180;11580;52.562;13.418;2023-05-31T11:05:58;101566.00;;;27.80
22828;BMP180;11580;52.562;13.418;2023-05-31T11:08:27;101559.00;;;27.80
22828;BMP180;11580;52.562;13.418;2023-05-31T11:11:27;101552.00;;;27.80
22828;BMP180;11580;52.562;13.418;2023-05-31T11:13:59;101545.00;;;27.80
22828;BMP180;11580;52.562;13.418;2023-05-31T11:16:30;101556.00;;;27.80
22828;BMP180;11580;52.562;13.418;2023-05-31T11:19:04;101548.00;;;27.70
22828;BMP180;11580;52.562;13.418;2023-05-31T11:21:49;101543.00;;;27.70
22828;BMP180;11580;52.562;13.418;2023-05-31T11:24:30;101555.00;;;27.70
22828;BMP180;11580;52.562;13.418;2023-05-31T11:27:00;101545.00;;;27.60
22828;BMP180;11580;52.562;13.418;2023-05-31T11:29:58;101542.00;;;27.60
22828;BMP180;11580;52.562;13.418;2023-05-31T11:32:55;101542.00;;;27.60
22828;BMP180;11580;52.562;13.418;2023-05-31T11:35:24;101529.00;;;27.60
22828;BMP180;11580;52.562;13.418;2023-05-31T11:38:03;101525.00;;;27.60
22828;BMP180;11580;52.562;13.418;2023-05-31T11:40:32;101522.00;;;27.60
22828;BMP180;11580;52.562;13.418;2023-05-31T11:43:09;101514.00;;;27.70
22828;BMP180;11580;52.562;13.418;2023-05-31T11:45:46;101520.00;;;27.70
22828;BMP180;11580;52.562;13.418;2023-05-31T11:48:38;101516.00;;;27.80
22828;BMP180;11580;52.562;13.418;2023-05-31T11:51:08;101513.00;;;27.80
22828;BMP180;11580;52.562;13.418;2023-05-31T11:53:35;101529.00;;;27.90
22828;BMP180;11580;52.562;13.418;2023-05-31T11:56:02;101519.00;;;27.90
22828;BMP180;11580;52.562;13.418;2023-05-31T11:58:31;101513.00;;;27.90
22828;BMP180;11580;52.562;13.418;2023-05-31T12:00:59;101512.00;;;28.00
22828;BMP180;11580;52.562;13.418;2023-05-31T12:03:27;101521.00;;;27.90
22828;BMP180;11580;52.562;13.418;2023-05-31T12:05:58;101514.00;;;27.90
22828;BMP180;11580;52.562;13.418;2023-05-31T12:08:26;101521.00;;;27.80
22828;BMP180;11580;52.562;13.418;2023-05-31T12:11:01;101511.00;;;27.70
22828;BMP180;11580;52.562;13.418;2023-05-31T12:13:31;101508.00;;;27.70
22828;BMP180;11580;52.562;13.418;2023-05-31T12:15:59;101509.00;;;27.60
22828;BMP180;11580;52.562;13.418;2023-05-31T12:18:28;101514.00;;;27.60
22828;BMP180;11580;52.562;13.418;2023-05-31T12:20:55;101501.00;;;27.50
22828;BMP180;11580;52.562;13.418;2023-05-31T12:23:23;101501.00;;;27.50
22828;BMP180;11580;52.562;13.418;2023-05-31T12:25:51;101500.00;;;27.40
22828;BMP180;11580;52.562;13.418;2023-05-31T12:28:19;101499.00;;;27.30
22828;BMP180;11580;52.562;13.418;2023-05-31T12:30:49;101502.00;;;27.40
22828;BMP180;11580;52.562;13.418;2023-05-31T12:33:17;101483.00;;;27.40
22828;BMP180;11580;52.562;13.418;2023-05-31T12:35:46;101491.00;;;27.40
22828;BMP180;11580;52.562;13.418;2023-05-31T12:38:14;101494.00;;;27.40
22828;BMP180;11580;52.562;13.418;2023-05-31T12:40:43;101487.00;;;27.50
22828;BMP180;11580;52.562;13.418;2023-05-31T12:43:12;101484.00;;;27.50
22828;BMP180;11580;52.562;13.418;2023-05-31T12:45:44;101486.00;;;27.60
22828;BMP180;11580;52.562;13.418;2023-05-31T12:48:12;101488.00;;;27.60
22828;BMP180;11580;52.562;13.418;2023-05-31T12:50:45;101475.00;;;27.70
22828;BMP180;11580;52.562;13.418;2023-05-31T12:53:13;101480.00;;;27.80
22828;BMP180;11580;52.562;13.418;2023-05-31T12:55:42;101462.00;;;27.90
22828;BMP180;11580;52.562;13.418;2023-05-31T12:58:09;101467.00;;;27.90
22828;BMP180;11580;52.562;13.418;2023-05-31T13:00:36;101460.00;;;28.00
22828;BMP180;11580;52.562;13.418;2023-05-31T13:03:03;101465.00;;;28.10
22828;BMP180;11580;52.562;13.418;2023-05-31T13:05:33;101470.00;;;28.10
22828;BMP180;11580;52.562;13.418;2023-05-31T13:08:01;101469.00;;;28.20
22828;BMP180;11580;52.562;13.418;2023-05-31T13:10:28;101470.00;;;28.20
22828;BMP180;11580;52.562;13.418;2023-05-31T13:12:55;101459.00;;;28.30
22828;BMP180;11580;52.562;13.418;2023-05-31T13:15:22;101458.00;;;28.30
22828;BMP180;11580;52.562;13.418;2023-05-31T13:17:49;101448.00;;;28.30
22828;BMP180;11580;52.562;13.418;2023-05-31T13:20:18;101452.00;;;28.40
22828;BMP180;11580;52.562;13.418;2023-05-31T13:22:46;101445.00;;;28.40
22828;BMP180;11580;52.562;13.418;2023-05-31T13:25:13;101447.00;;;28.30
22828;BMP180;11580;52.562;13.418;2023-05-31T13:27:40;101443.00;;;28.30
22828;BMP180;11580;52.562;13.418;2023-05-31T13:30:09;101433.00;;;28.30
22828;BMP180;11580;52.562;13.418;2023-05-31T13:32:36;101432.00;;;28.20
22828;BMP180;11580;52.562;13.418;2023-05-31T13:35:04;101431.00;;;28.20
22828;BMP180;11580;52.562;13.418;2023-05-31T13:37:34;101432.00;;;28.20
22828;BMP180;11580;52.562;13.418;2023-05-31T13:40:03;101422.00;;;28.10
22828;BMP180;11580;52.562;13.418;2023-05-31T13:42:30;101418.00;;;28.10
22828;BMP180;11580;52.562;13.418;2023-05-31T13:44:57;101403.00;;;28.10
22828;BMP180;11580;52.562;13.418;2023-05-31T13:47:24;101403.00;;;28.10
22828;BMP180;11580;52.562;13.418;2023-05-31T13:49:52;101402.00;;;28.10
22828;BMP180;11580;52.562;13.418;2023-05-31T13:52:19;101390.00;;;28.10
22828;BMP180;11580;52.562;13.418;2023-05-31T13:54:46;101411.00;;;28.10
22828;BMP180;11580;52.562;13.418;2023-05-31T13:57:15;101389.00;;;28.10
22828;BMP180;11580;52.562;13.418;2023-05-31T13:59:42;101388.00;;;28.20